sensor_id;sensor_type;location;lat;lon;timestamp;temperature;humidity
3360;DHT22;1693;49.602;11.046;2023-04-25T00:01:02;7.30;99.90
3360;DHT22;1693;49.602;11.046;2023-04-25T00:03:29;7.40;99.90
3360;DHT22;1693;49.602;11.046;2023-04-25T00:05:56;7.40;99.90
3360;DHT22;1693;49.602;11.046;2023-04-25T00:08:25;7.50;99.90
3360;DHT22;1693;49.602;11.046;2023-04-25T00:10:52;7.50;99.90
3360;DHT22;1693;49.602;11.046;2023-04-25T00:15:47;7.90;99.90
3360;DHT22;1693;49.602;11.046;2023-04-25T00:18:15;8.10;99.90
3360;DHT22;1693;49.602;11.046;2023-04-25T00:20:43;8.20;99.90
3360;DHT22;1693;49.602;11.046;2023-04-25T00:23:12;8.40;99.90
3360;DHT22;1693;49.602;11.046;2023-04-25T00:25:45;8.40;99.90
3360;DHT22;1693;49.602;11.046;2023-04-25T00:28:12;8.60;99.90
3360;DHT22;1693;49.602;11.046;2023-04-25T00:30:40;8.70;99.90
3360;DHT22;1693;49.602;11.046;2023-04-25T00:33:08;8.70;99.90
3360;DHT22;1693;49.602;11.046;2023-04-25T00:35:35;8.70;99.90
3360;DHT22;1693;49.602;11.046;2023-04-25T00:38:02;8.80;99.90
3360;DHT22;1693;49.602;11.046;2023-04-25T00:40:29;8.80;99.90
3360;DHT22;1693;49.602;11.046;2023-04-25T00:42:58;8.90;99.90
3360;DHT22;1693;49.602;11.046;2023-04-25T00:45:28;8.90;99.90
3360;DHT22;1693;49.602;11.046;2023-04-25T00:47:56;8.90;99.90
3360;DHT22;1693;49.602;11.046;2023-04-25T00:50:23;8.90;99.90
3360;DHT22;1693;49.602;11.046;2023-04-25T00:52:51;8.90;99.90
3360;DHT22;1693;49.602;11.046;2023-04-25T00:55:19;8.80;99.90
3360;DHT22;1693;49.602;11.046;2023-04-25T00:57:47;9.00;99.90
3360;DHT22;1693;49.602;11.046;2023-04-25T01:00:17;9.00;99.90
3360;DHT22;1693;49.602;11.046;2023-04-25T01:02:44;9.10;99.90
3360;DHT22;1693;49.602;11.046;2023-04-25T01:05:12;9.10;99.90
3360;DHT22;1693;49.602;11.046;2023-04-25T01:07:39;9.10;99.90
3360;DHT22;1693;49.602;11.046;2023-04-25T01:10:07;9.00;99.90
3360;DHT22;1693;49.602;11.046;2023-04-25T01:12:35;9.00;99.90
3360;DHT22;1693;49.602;11.046;2023-04-25T01:15:03;9.10;99.90
3360;DHT22;1693;49.602;11.046;2023-04-25T01:17:31;9.00;99.90
3360;DHT22;1693;49.602;11.046;2023-04-25T01:19:58;8.90;99.90
3360;DHT22;1693;49.602;11.046;2023-04-25T01:22:28;9.00;99.90
3360;DHT22;1693;49.602;11.046;2023-04-25T01:24:55;9.10;99.90
3360;DHT22;1693;49.602;11.046;2023-04-25T01:27:22;9.00;99.90
3360;DHT22;1693;49.602;11.046;2023-04-25T01:29:50;9.00;99.90
3360;DHT22;1693;49.602;11.046;2023-04-25T01:32:18;9.00;99.90
3360;DHT22;1693;49.602;11.046;2023-04-25T01:34:45;9.10;99.90
3360;DHT22;1693;49.602;11.046;2023-04-25T01:37:12;9.10;99.90
3360;DHT22;1693;49.602;11.046;2023-04-25T01:39:42;9.10;99.90
3360;DHT22;1693;49.602;11.046;2023-04-25T01:42:10;9.10;99.90
3360;DHT22;1693;49.602;11.046;2023-04-25T01:44:37;9.10;99.90
3360;DHT22;1693;49.602;11.046;2023-04-25T01:47:04;9.00;99.90
3360;DHT22;1693;49.602;11.046;2023-04-25T01:49:31;9.00;99.90
3360;DHT22;1693;49.602;11.046;2023-04-25T01:51:58;9.00;99.90
3360;DHT22;1693;49.602;11.046;2023-04-25T01:54:26;8.90;99.90
3360;DHT22;1693;49.602;11.046;2023-04-25T01:56:57;8.80;99.90
3360;DHT22;1693;49.602;11.046;2023-04-25T01:59:24;8.90;99.90
3360;DHT22;1693;49.602;11.046;2023-04-25T02:01:51;9.00;99.90
3360;DHT22;1693;49.602;11.046;2023-04-25T02:04:18;9.00;99.90
3360;DHT22;1693;49.602;11.046;2023-04-25T02:06:48;9.00;99.90
3360;DHT22;1693;49.602;11.046;2023-04-25T02:09:15;9.00;99.90
3360;DHT22;1693;49.602;11.046;2023-04-25T02:11:42;9.10;99.90
3360;DHT22;1693;49.602;11.046;2023-04-25T02:16:38;9.00;99.90
3360;DHT22;1693;49.602;11.046;2023-04-25T02:19:05;9.10;99.90
3360;DHT22;1693;49.602;11.046;2023-04-25T02:21:32;9.10;99.90
3360;DHT22;1693;49.602;11.046;2023-04-25T02:24:01;9.10;99.90
3360;DHT22;1693;49.602;11.046;2023-04-25T02:26:28;9.00;99.90
3360;DHT22;1693;49.602;11.046;2023-04-25T02:28:56;9.00;99.90
3360;DHT22;1693;49.602;11.046;2023-04-25T02:31:25;9.00;99.90
3360;DHT22;1693;49.602;11.046;2023-04-25T02:33:52;8.90;99.90
3360;DHT22;1693;49.602;11.046;2023-04-25T02:36:19;8.90;99.90
3360;DHT22;1693;49.602;11.046;2023-04-25T02:38:46;8.90;99.90
3360;DHT22;1693;49.602;11.046;2023-04-25T02:41:13;8.80;99.90
3360;DHT22;1693;49.602;11.046;2023-04-25T02:43:40;8.80;99.90
3360;DHT22;1693;49.602;11.046;2023-04-25T02:46:07;8.80;99.90
3360;DHT22;1693;49.602;11.046;2023-04-25T02:48:36;8.80;99.90
3360;DHT22;1693;49.602;11.046;2023-04-25T02:51:04;8.80;99.90
3360;DHT22;1693;49.602;11.046;2023-04-25T02:53:31;8.80;99.90
3360;DHT22;1693;49.602;11.046;2023-04-25T02:55:58;8.80;99.90
3360;DHT22;1693;49.602;11.046;2023-04-25T02:58:26;8.90;99.90
3360;DHT22;1693;49.602;11.046;2023-04-25T03:00:53;8.80;99.90
3360;DHT22;1693;49.602;11.046;2023-04-25T03:03:20;8.80;99.90
3360;DHT22;1693;49.602;11.046;2023-04-25T03:05:49;8.70;99.90
3360;DHT22;1693;49.602;11.046;2023-04-25T03:08:16;8.80;99.90
3360;DHT22;1693;49.602;11.046;2023-04-25T03:10:43;8.70;99.90
3360;DHT22;1693;49.602;11.046;2023-04-25T03:13:10;8.70;99.90
3360;DHT22;1693;49.602;11.046;2023-04-25T03:15:37;8.70;99.90
3360;DHT22;1693;49.602;11.046;2023-04-25T03:18:05;8.70;99.90
3360;DHT22;1693;49.602;11.046;2023-04-25T03:20:32;8.70;99.90
3360;DHT22;1693;49.602;11.046;2023-04-25T03:23:00;8.70;99.90
3360;DHT22;1693;49.602;11.046;2023-04-25T03:25:27;8.60;99.90
3360;DHT22;1693;49.602;11.046;2023-04-25T03:27:55;8.60;99.90
3360;DHT22;1693;49.602;11.046;2023-04-25T03:30:22;8.60;99.90
3360;DHT22;1693;49.602;11.046;2023-04-25T03:32:49;8.60;99.90
3360;DHT22;1693;49.602;11.046;2023-04-25T03:35:16;8.60;99.90
3360;DHT22;1693;49.602;11.046;2023-04-25T03:37:43;8.60;99.90
3360;DHT22;1693;49.602;11.046;2023-04-25T03:40:12;8.50;99.90
3360;DHT22;1693;49.602;11.046;2023-04-25T03:42:39;8.40;99.90
3360;DHT22;1693;49.602;11.046;2023-04-25T03:45:08;8.40;99.90
3360;DHT22;1693;49.602;11.046;2023-04-25T03:47:35;8.40;99.90
3360;DHT22;1693;49.602;11.046;2023-04-25T03:50:02;8.50;99.90
3360;DHT22;1693;49.602;11.046;2023-04-25T03:52:29;8.40;99.90
3360;DHT22;1693;49.602;11.046;2023-04-25T03:54:56;8.40;99.90
3360;DHT22;1693;49.602;11.046;2023-04-25T03:57:25;8.50;99.90
3360;DHT22;1693;49.602;11.046;2023-04-25T03:59:52;8.50;99.90
3360;DHT22;1693;49.602;11.046;2023-04-25T04:02:19;8.50;99.90
3360;DHT22;1693;49.602;11.046;2023-04-25T04:04:47;8.50;99.90
3360;DHT22;1693;49.602;11.046;2023-04-25T04:07:14;8.50;99.90
3360;DHT22;1693;49.602;11.046;2023-04-25T04:09:41;8.50;99.90
3360;DHT22;1693;49.602;11.046;2023-04-25T04:12:08;8.60;99.90
3360;DHT22;1693;49.602;11.046;2023-04-25T04:14:36;8.50;99.90
3360;DHT22;1693;49.602;11.046;2023-04-25T04:17:03;8.40;99.90
3360;DHT22;1693;49.602;11.046;2023-04-25T04:19:32;8.40;99.90
3360;DHT22;1693;49.602;11.046;2023-04-25T04:21:58;8.50;99.90
3360;DHT22;1693;49.602;11.046;2023-04-25T04:24:25;8.50;99.90
3360;DHT22;1693;49.602;11.046;2023-04-25T04:26:53;8.40;99.90
3360;DHT22;1693;49.602;11.046;2023-04-25T04:29:20;8.50;99.90
3360;DHT22;1693;49.602;11.046;2023-04-25T04:31:50;8.30;99.90
3360;DHT22;1693;49.602;11.046;2023-04-25T04:34:18;8.40;99.90
3360;DHT22;1693;49.602;11.046;2023-04-25T04:36:45;8.40;99.90
3360;DHT22;1693;49.602;11.046;2023-04-25T04:39:12;8.50;99.90
3360;DHT22;1693;49.602;11.046;2023-04-25T04:41:40;8.50;99.90
3360;DHT22;1693;49.602;11.046;2023-04-25T04:44:07;8.40;99.90
3360;DHT22;1693;49.602;11.046;2023-04-25T04:46:34;8.40;99.90
3360;DHT22;1693;49.602;11.046;2023-04-25T04:49:06;8.40;99.90
3360;DHT22;1693;49.602;11.046;2023-04-25T04:51:33;8.40;99.90
3360;DHT22;1693;49.602;11.046;2023-04-25T04:54:00;8.40;99.90
3360;DHT22;1693;49.602;11.046;2023-04-25T04:56:28;8.50;99.90
3360;DHT22;1693;49.602;11.046;2023-04-25T04:58:56;8.40;99.90
3360;DHT22;1693;49.602;11.046;2023-04-25T05:01:24;8.50;99.90
3360;DHT22;1693;49.602;11.046;2023-04-25T05:03:51;8.30;99.90
3360;DHT22;1693;49.602;11.046;2023-04-25T05:06:19;8.30;99.90
3360;DHT22;1693;49.602;11.046;2023-04-25T05:08:46;8.20;99.90
3360;DHT22;1693;49.602;11.046;2023-04-25T05:11:14;8.20;99.90
3360;DHT22;1693;49.602;11.046;2023-04-25T05:13:41;8.20;99.90
3360;DHT22;1693;49.602;11.046;2023-04-25T05:16:08;8.10;99.90
3360;DHT22;1693;49.602;11.046;2023-04-25T05:18:35;8.10;99.90
3360;DHT22;1693;49.602;11.046;2023-04-25T05:21:04;8.20;99.90
3360;DHT22;1693;49.602;11.046;2023-04-25T05:23:34;8.20;99.90
3360;DHT22;1693;49.602;11.046;2023-04-25T05:26:05;8.30;99.90
3360;DHT22;1693;49.602;11.046;2023-04-25T05:28:40;8.30;99.90
3360;DHT22;1693;49.602;11.046;2023-04-25T05:31:12;8.40;99.90
3360;DHT22;1693;49.602;11.046;2023-04-25T05:33:40;8.40;99.90
3360;DHT22;1693;49.602;11.046;2023-04-25T05:36:11;8.50;99.90
3360;DHT22;1693;49.602;11.046;2023-04-25T05:38:42;8.60;99.90
3360;DHT22;1693;49.602;11.046;2023-04-25T05:41:11;8.70;99.90
3360;DHT22;1693;49.602;11.046;2023-04-25T05:43:39;8.80;99.90
3360;DHT22;1693;49.602;11.046;2023-04-25T05:46:11;8.80;99.90
3360;DHT22;1693;49.602;11.046;2023-04-25T05:48:38;8.90;99.90
3360;DHT22;1693;49.602;11.046;2023-04-25T05:51:05;8.90;99.90
3360;DHT22;1693;49.602;11.046;2023-04-25T05:53:32;8.90;99.90
3360;DHT22;1693;49.602;11.046;2023-04-25T05:56:01;8.90;99.90
3360;DHT22;1693;49.602;11.046;2023-04-25T05:58:28;8.80;99.90
3360;DHT22;1693;49.602;11.046;2023-04-25T06:00:55;8.60;99.90
3360;DHT22;1693;49.602;11.046;2023-04-25T06:03:22;8.60;99.90
3360;DHT22;1693;49.602;11.046;2023-04-25T06:05:49;8.50;99.90
3360;DHT22;1693;49.602;11.046;2023-04-25T06:08:16;8.30;99.90
3360;DHT22;1693;49.602;11.046;2023-04-25T06:10:43;8.30;99.90
3360;DHT22;1693;49.602;11.046;2023-04-25T06:13:12;8.20;99.90
3360;DHT22;1693;49.602;11.046;2023-04-25T06:15:40;8.10;99.90
3360;DHT22;1693;49.602;11.046;2023-04-25T06:18:07;8.10;99.90
3360;DHT22;1693;49.602;11.046;2023-04-25T06:20:34;8.00;99.90
3360;DHT22;1693;49.602;11.046;2023-04-25T06:23:02;7.90;99.90
3360;DHT22;1693;49.602;11.046;2023-04-25T06:25:30;7.90;99.90
3360;DHT22;1693;49.602;11.046;2023-04-25T06:27:57;7.80;99.90
3360;DHT22;1693;49.602;11.046;2023-04-25T06:30:26;7.70;99.90
3360;DHT22;1693;49.602;11.046;2023-04-25T06:32:53;7.70;99.90
3360;DHT22;1693;49.602;11.046;2023-04-25T06:35:20;7.70;99.90
3360;DHT22;1693;49.602;11.046;2023-04-25T06:37:47;7.70;99.90
3360;DHT22;1693;49.602;11.046;2023-04-25T06:40:14;7.70;99.90
3360;DHT22;1693;49.602;11.046;2023-04-25T06:42:43;7.90;99.90
3360;DHT22;1693;49.602;11.046;2023-04-25T06:45:10;7.90;99.90
3360;DHT22;1693;49.602;11.046;2023-04-25T06:47:39;8.10;99.90
3360;DHT22;1693;49.602;11.046;2023-04-25T06:50:07;8.30;99.90
3360;DHT22;1693;49.602;11.046;2023-04-25T06:52:34;8.30;99.90
3360;DHT22;1693;49.602;11.046;2023-04-25T06:55:01;8.30;99.90
3360;DHT22;1693;49.602;11.046;2023-04-25T06:57:30;8.30;99.90
3360;DHT22;1693;49.602;11.046;2023-04-25T06:59:57;8.20;99.90
3360;DHT22;1693;49.602;11.046;2023-04-25T07:02:24;8.00;99.90
3360;DHT22;1693;49.602;11.046;2023-04-25T07:04:53;7.80;99.90
3360;DHT22;1693;49.602;11.046;2023-04-25T07:07:22;7.60;99.90
3360;DHT22;1693;49.602;11.046;2023-04-25T07:09:49;7.50;99.90
3360;DHT22;1693;49.602;11.046;2023-04-25T07:12:16;7.20;99.90
3360;DHT22;1693;49.602;11.046;2023-04-25T07:14:43;7.20;99.90
3360;DHT22;1693;49.602;11.046;2023-04-25T07:17:10;7.20;99.90
3360;DHT22;1693;49.602;11.046;2023-04-25T07:19:37;7.10;99.90
3360;DHT22;1693;49.602;11.046;2023-04-25T07:22:06;7.10;99.90
3360;DHT22;1693;49.602;11.046;2023-04-25T07:24:34;6.90;99.90
3360;DHT22;1693;49.602;11.046;2023-04-25T07:27:01;6.90;99.90
3360;DHT22;1693;49.602;11.046;2023-04-25T07:29:28;6.80;99.90
3360;DHT22;1693;49.602;11.046;2023-04-25T07:31:55;6.80;99.90
3360;DHT22;1693;49.602;11.046;2023-04-25T07:34:22;6.90;99.90
3360;DHT22;1693;49.602;11.046;2023-04-25T07:36:51;7.00;99.90
3360;DHT22;1693;49.602;11.046;2023-04-25T07:39:20;7.20;99.90
3360;DHT22;1693;49.602;11.046;2023-04-25T07:41:48;7.20;99.90
3360;DHT22;1693;49.602;11.046;2023-04-25T07:44:16;7.30;99.90
3360;DHT22;1693;49.602;11.046;2023-04-25T07:46:43;7.30;99.90
3360;DHT22;1693;49.602;11.046;2023-04-25T07:49:10;7.60;99.90
3360;DHT22;1693;49.602;11.046;2023-04-25T07:51:38;7.80;99.90
3360;DHT22;1693;49.602;11.046;2023-04-25T07:54:05;8.00;99.90
3360;DHT22;1693;49.602;11.046;2023-04-25T07:56:34;7.90;99.90
3360;DHT22;1693;49.602;11.046;2023-04-25T07:59:01;8.10;99.90
3360;DHT22;1693;49.602;11.046;2023-04-25T08:01:28;8.20;99.90
3360;DHT22;1693;49.602;11.046;2023-04-25T08:03:55;8.40;99.90
3360;DHT22;1693;49.602;11.046;2023-04-25T08:06:22;8.30;99.90
3360;DHT22;1693;49.602;11.046;2023-04-25T08:08:49;8.30;99.90
3360;DHT22;1693;49.602;11.046;2023-04-25T08:11:18;8.40;99.90
3360;DHT22;1693;49.602;11.046;2023-04-25T08:13:46;8.30;99.90
3360;DHT22;1693;49.602;11.046;2023-04-25T08:16:14;8.50;99.90
3360;DHT22;1693;49.602;11.046;2023-04-25T08:18:42;8.60;99.90
3360;DHT22;1693;49.602;11.046;2023-04-25T08:21:09;8.80;99.90
3360;DHT22;1693;49.602;11.046;2023-04-25T08:23:37;9.10;99.90
3360;DHT22;1693;49.602;11.046;2023-04-25T08:26:04;9.40;99.90
3360;DHT22;1693;49.602;11.046;2023-04-25T08:28:31;9.70;99.90
3360;DHT22;1693;49.602;11.046;2023-04-25T08:31:00;9.90;99.90
3360;DHT22;1693;49.602;11.046;2023-04-25T08:33:27;9.70;99.90
3360;DHT22;1693;49.602;11.046;2023-04-25T08:35:56;9.70;99.90
3360;DHT22;1693;49.602;11.046;2023-04-25T08:38:23;9.60;99.90
3360;DHT22;1693;49.602;11.046;2023-04-25T08:40:50;9.40;99.90
3360;DHT22;1693;49.602;11.046;2023-04-25T08:43:19;9.40;99.90
3360;DHT22;1693;49.602;11.046;2023-04-25T08:45:47;9.50;99.90
3360;DHT22;1693;49.602;11.046;2023-04-25T08:48:16;9.80;99.90
3360;DHT22;1693;49.602;11.046;2023-04-25T08:50:48;10.00;99.90
3360;DHT22;1693;49.602;11.046;2023-04-25T08:53:16;10.10;99.90
3360;DHT22;1693;49.602;11.046;2023-04-25T08:55:46;10.10;99.90
3360;DHT22;1693;49.602;11.046;2023-04-25T08:58:13;10.30;99.90
3360;DHT22;1693;49.602;11.046;2023-04-25T09:00:41;10.80;99.90
3360;DHT22;1693;49.602;11.046;2023-04-25T09:03:08;10.90;99.90
3360;DHT22;1693;49.602;11.046;2023-04-25T09:05:37;10.60;99.90
3360;DHT22;1693;49.602;11.046;2023-04-25T09:08:05;10.50;99.90
3360;DHT22;1693;49.602;11.046;2023-04-25T09:10:34;10.50;99.90
3360;DHT22;1693;49.602;11.046;2023-04-25T09:13:05;10.50;99.90
3360;DHT22;1693;49.602;11.046;2023-04-25T09:15:48;10.50;99.90
3360;DHT22;1693;49.602;11.046;2023-04-25T09:18:27;10.80;99.90
3360;DHT22;1693;49.602;11.046;2023-04-25T09:21:13;10.90;99.90
3360;DHT22;1693;49.602;11.046;2023-04-25T09:23:59;10.80;99.90
3360;DHT22;1693;49.602;11.046;2023-04-25T09:26:42;10.80;99.90
3360;DHT22;1693;49.602;11.046;2023-04-25T09:29:10;10.90;99.90
3360;DHT22;1693;49.602;11.046;2023-04-25T09:31:38;11.40;99.90
3360;DHT22;1693;49.602;11.046;2023-04-25T09:34:05;11.90;99.90
3360;DHT22;1693;49.602;11.046;2023-04-25T09:36:35;12.10;99.90
3360;DHT22;1693;49.602;11.046;2023-04-25T09:39:03;12.10;99.90
3360;DHT22;1693;49.602;11.046;2023-04-25T09:41:41;12.10;99.90
3360;DHT22;1693;49.602;11.046;2023-04-25T09:44:13;12.00;99.90
3360;DHT22;1693;49.602;11.046;2023-04-25T09:46:42;11.90;99.90
3360;DHT22;1693;49.602;11.046;2023-04-25T09:49:10;12.40;99.90
3360;DHT22;1693;49.602;11.046;2023-04-25T09:51:39;12.60;99.90
3360;DHT22;1693;49.602;11.046;2023-04-25T09:54:07;12.50;99.90
3360;DHT22;1693;49.602;11.046;2023-04-25T09:56:36;11.90;99.90
3360;DHT22;1693;49.602;11.046;2023-04-25T09:59:04;11.90;99.90
3360;DHT22;1693;49.602;11.046;2023-04-25T10:01:33;12.30;99.90
3360;DHT22;1693;49.602;11.046;2023-04-25T10:04:05;12.30;99.90
3360;DHT22;1693;49.602;11.046;2023-04-25T10:06:34;12.70;99.90
3360;DHT22;1693;49.602;11.046;2023-04-25T10:09:04;12.80;99.90
3360;DHT22;1693;49.602;11.046;2023-04-25T10:11:34;12.90;99.90
3360;DHT22;1693;49.602;11.046;2023-04-25T10:14:03;12.80;98.50
3360;DHT22;1693;49.602;11.046;2023-04-25T10:16:32;12.90;98.60
3360;DHT22;1693;49.602;11.046;2023-04-25T10:19:08;13.30;97.30
3360;DHT22;1693;49.602;11.046;2023-04-25T10:21:58;12.70;97.70
3360;DHT22;1693;49.602;11.046;2023-04-25T10:24:51;13.10;97.40
3360;DHT22;1693;49.602;11.046;2023-04-25T10:27:18;12.90;97.80
3360;DHT22;1693;49.602;11.046;2023-04-25T10:29:45;12.80;98.00
3360;DHT22;1693;49.602;11.046;2023-04-25T10:32:27;12.80;97.20
3360;DHT22;1693;49.602;11.046;2023-04-25T10:34:54;13.00;98.00
3360;DHT22;1693;49.602;11.046;2023-04-25T10:37:21;12.50;99.10
3360;DHT22;1693;49.602;11.046;2023-04-25T10:39:50;12.50;99.00
3360;DHT22;1693;49.602;11.046;2023-04-25T10:42:18;12.60;99.10
3360;DHT22;1693;49.602;11.046;2023-04-25T10:45:01;12.30;99.90
3360;DHT22;1693;49.602;11.046;2023-04-25T10:47:35;12.20;99.90
3360;DHT22;1693;49.602;11.046;2023-04-25T10:50:08;12.20;99.90
3360;DHT22;1693;49.602;11.046;2023-04-25T10:52:38;12.20;99.90
3360;DHT22;1693;49.602;11.046;2023-04-25T10:55:08;12.50;99.90
3360;DHT22;1693;49.602;11.046;2023-04-25T10:57:40;12.50;99.90
3360;DHT22;1693;49.602;11.046;2023-04-25T11:00:10;12.50;99.90
3360;DHT22;1693;49.602;11.046;2023-04-25T11:02:41;12.20;98.50
3360;DHT22;1693;49.602;11.046;2023-04-25T11:05:09;12.40;98.40
3360;DHT22;1693;49.602;11.046;2023-04-25T11:07:39;12.00;97.70
3360;DHT22;1693;49.602;11.046;2023-04-25T11:10:11;12.00;98.00
3360;DHT22;1693;49.602;11.046;2023-04-25T11:12:38;12.00;98.70
3360;DHT22;1693;49.602;11.046;2023-04-25T11:15:07;12.20;99.50
3360;DHT22;1693;49.602;11.046;2023-04-25T11:17:35;12.50;99.20
3360;DHT22;1693;49.602;11.046;2023-04-25T11:20:03;13.20;99.30
3360;DHT22;1693;49.602;11.046;2023-04-25T11:22:34;14.30;98.20
3360;DHT22;1693;49.602;11.046;2023-04-25T11:25:05;14.40;96.20
3360;DHT22;1693;49.602;11.046;2023-04-25T11:27:36;13.40;95.60
3360;DHT22;1693;49.602;11.046;2023-04-25T11:30:11;12.70;97.10
3360;DHT22;1693;49.602;11.046;2023-04-25T11:32:39;13.50;96.80
3360;DHT22;1693;49.602;11.046;2023-04-25T11:35:09;14.60;94.40
3360;DHT22;1693;49.602;11.046;2023-04-25T11:37:36;15.00;93.00
3360;DHT22;1693;49.602;11.046;2023-04-25T11:40:07;15.50;91.40
3360;DHT22;1693;49.602;11.046;2023-04-25T11:42:38;15.30;91.10
3360;DHT22;1693;49.602;11.046;2023-04-25T11:45:06;14.90;91.80
3360;DHT22;1693;49.602;11.046;2023-04-25T11:47:34;14.40;91.10
3360;DHT22;1693;49.602;11.046;2023-04-25T11:50:01;13.90;92.80
3360;DHT22;1693;49.602;11.046;2023-04-25T11:52:36;13.80;91.70
3360;DHT22;1693;49.602;11.046;2023-04-25T11:55:07;13.70;91.70
3360;DHT22;1693;49.602;11.046;2023-04-25T11:57:35;13.60;91.30
3360;DHT22;1693;49.602;11.046;2023-04-25T12:00:08;13.20;91.30
3360;DHT22;1693;49.602;11.046;2023-04-25T12:02:37;13.10;92.60
3360;DHT22;1693;49.602;11.046;2023-04-25T12:05:06;13.40;92.70
3360;DHT22;1693;49.602;11.046;2023-04-25T12:07:33;13.20;92.20
3360;DHT22;1693;49.602;11.046;2023-04-25T12:10:05;13.40;92.70
3360;DHT22;1693;49.602;11.046;2023-04-25T12:12:33;13.10;92.90
3360;DHT22;1693;49.602;11.046;2023-04-25T12:15:10;13.40;92.30
3360;DHT22;1693;49.602;11.046;2023-04-25T12:17:38;13.60;91.90
3360;DHT22;1693;49.602;11.046;2023-04-25T12:20:07;13.80;92.10
3360;DHT22;1693;49.602;11.046;2023-04-25T12:22:35;14.20;92.30
3360;DHT22;1693;49.602;11.046;2023-04-25T12:25:03;13.80;92.10
3360;DHT22;1693;49.602;11.046;2023-04-25T12:27:31;13.50;93.30
3360;DHT22;1693;49.602;11.046;2023-04-25T12:29:59;13.20;93.60
3360;DHT22;1693;49.602;11.046;2023-04-25T12:32:36;12.90;94.70
3360;DHT22;1693;49.602;11.046;2023-04-25T12:35:09;12.70;94.10
3360;DHT22;1693;49.602;11.046;2023-04-25T12:37:41;12.70;94.30
3360;DHT22;1693;49.602;11.046;2023-04-25T12:40:09;12.60;96.20
3360;DHT22;1693;49.602;11.046;2023-04-25T12:45:05;12.00;94.20
3360;DHT22;1693;49.602;11.046;2023-04-25T12:47:34;11.90;94.90
3360;DHT22;1693;49.602;11.046;2023-04-25T12:50:04;12.10;95.30
3360;DHT22;1693;49.602;11.046;2023-04-25T12:52:31;12.60;95.60
3360;DHT22;1693;49.602;11.046;2023-04-25T12:54:58;12.50;96.10
3360;DHT22;1693;49.602;11.046;2023-04-25T12:57:25;12.50;96.20
3360;DHT22;1693;49.602;11.046;2023-04-25T12:59:52;12.70;96.20
3360;DHT22;1693;49.602;11.046;2023-04-25T13:02:19;12.70;94.20
3360;DHT22;1693;49.602;11.046;2023-04-25T13:04:48;13.10;93.80
3360;DHT22;1693;49.602;11.046;2023-04-25T13:07:15;12.70;94.10
3360;DHT22;1693;49.602;11.046;2023-04-25T13:09:42;12.70;93.20
3360;DHT22;1693;49.602;11.046;2023-04-25T13:12:09;13.00;93.40
3360;DHT22;1693;49.602;11.046;2023-04-25T13:14:36;12.80;93.60
3360;DHT22;1693;49.602;11.046;2023-04-25T13:17:04;12.80;94.20
3360;DHT22;1693;49.602;11.046;2023-04-25T13:19:30;12.80;95.00
3360;DHT22;1693;49.602;11.046;2023-04-25T13:22:00;12.60;95.30
3360;DHT22;1693;49.602;11.046;2023-04-25T13:24:29;12.80;95.10
3360;DHT22;1693;49.602;11.046;2023-04-25T13:26:56;12.70;94.90
3360;DHT22;1693;49.602;11.046;2023-04-25T13:29:24;12.40;94.90
3360;DHT22;1693;49.602;11.046;2023-04-25T13:31:51;12.40;95.30
3360;DHT22;1693;49.602;11.046;2023-04-25T13:34:18;12.40;95.20
3360;DHT22;1693;49.602;11.046;2023-04-25T13:36:45;12.10;96.70
3360;DHT22;1693;49.602;11.046;2023-04-25T13:39:13;12.20;96.50
3360;DHT22;1693;49.602;11.046;2023-04-25T13:41:40;12.30;97.20
3360;DHT22;1693;49.602;11.046;2023-04-25T13:44:07;12.80;96.70
3360;DHT22;1693;49.602;11.046;2023-04-25T13:46:34;13.00;95.10
3360;DHT22;1693;49.602;11.046;2023-04-25T13:49:02;12.90;95.00
3360;DHT22;1693;49.602;11.046;2023-04-25T13:51:29;13.10;95.20
3360;DHT22;1693;49.602;11.046;2023-04-25T13:53:57;13.20;94.50
3360;DHT22;1693;49.602;11.046;2023-04-25T13:56:25;13.00;94.80
3360;DHT22;1693;49.602;11.046;2023-04-25T13:58:54;12.80;94.40
3360;DHT22;1693;49.602;11.046;2023-04-25T14:01:22;12.20;95.00
3360;DHT22;1693;49.602;11.046;2023-04-25T14:03:49;11.90;94.60
3360;DHT22;1693;49.602;11.046;2023-04-25T14:06:16;11.60;95.10
3360;DHT22;1693;49.602;11.046;2023-04-25T14:08:48;11.60;95.80
3360;DHT22;1693;49.602;11.046;2023-04-25T14:11:15;11.30;96.60
3360;DHT22;1693;49.602;11.046;2023-04-25T14:13:45;11.00;97.40
3360;DHT22;1693;49.602;11.046;2023-04-25T14:16:13;11.10;98.20
3360;DHT22;1693;49.602;11.046;2023-04-25T14:18:40;11.10;98.60
3360;DHT22;1693;49.602;11.046;2023-04-25T14:21:07;11.40;98.80
3360;DHT22;1693;49.602;11.046;2023-04-25T14:23:35;11.60;98.70
3360;DHT22;1693;49.602;11.046;2023-04-25T14:26:02;11.70;98.40
3360;DHT22;1693;49.602;11.046;2023-04-25T14:28:29;11.60;98.00
3360;DHT22;1693;49.602;11.046;2023-04-25T14:30:57;11.80;98.20
3360;DHT22;1693;49.602;11.046;2023-04-25T14:33:24;12.00;98.60
3360;DHT22;1693;49.602;11.046;2023-04-25T14:35:52;11.80;98.40
3360;DHT22;1693;49.602;11.046;2023-04-25T14:38:20;11.90;97.50
3360;DHT22;1693;49.602;11.046;2023-04-25T14:40:48;12.00;97.70
3360;DHT22;1693;49.602;11.046;2023-04-25T14:43:16;11.80;97.90
3360;DHT22;1693;49.602;11.046;2023-04-25T14:45:43;11.80;97.60
3360;DHT22;1693;49.602;11.046;2023-04-25T14:48:11;11.70;96.70
3360;DHT22;1693;49.602;11.046;2023-04-25T14:50:39;11.50;96.20
3360;DHT22;1693;49.602;11.046;2023-04-25T14:53:06;11.60;96.50
3360;DHT22;1693;49.602;11.046;2023-04-25T14:55:33;11.60;97.00
3360;DHT22;1693;49.602;11.046;2023-04-25T14:58:00;11.60;97.00
3360;DHT22;1693;49.602;11.046;2023-04-25T15:00:27;11.60;97.30
3360;DHT22;1693;49.602;11.046;2023-04-25T15:02:57;11.50;97.80
3360;DHT22;1693;49.602;11.046;2023-04-25T15:05:27;11.60;97.40
3360;DHT22;1693;49.602;11.046;2023-04-25T15:07:56;11.60;97.50
3360;DHT22;1693;49.602;11.046;2023-04-25T15:10:24;11.60;97.50
3360;DHT22;1693;49.602;11.046;2023-04-25T15:12:51;12.00;96.90
3360;DHT22;1693;49.602;11.046;2023-04-25T15:15:19;11.70;96.90
3360;DHT22;1693;49.602;11.046;2023-04-25T15:17:46;11.80;97.30
3360;DHT22;1693;49.602;11.046;2023-04-25T15:20:14;11.80;97.00
3360;DHT22;1693;49.602;11.046;2023-04-25T15:22:43;11.80;96.90
3360;DHT22;1693;49.602;11.046;2023-04-25T15:25:11;11.80;97.60
3360;DHT22;1693;49.602;11.046;2023-04-25T15:27:39;11.80;97.90
3360;DHT22;1693;49.602;11.046;2023-04-25T15:30:10;11.70;97.50
3360;DHT22;1693;49.602;11.046;2023-04-25T15:32:38;11.50;97.60
3360;DHT22;1693;49.602;11.046;2023-04-25T15:35:07;11.50;97.90
3360;DHT22;1693;49.602;11.046;2023-04-25T15:37:34;11.40;98.10
3360;DHT22;1693;49.602;11.046;2023-04-25T15:40:05;11.50;98.50
3360;DHT22;1693;49.602;11.046;2023-04-25T15:42:34;12.10;98.20
3360;DHT22;1693;49.602;11.046;2023-04-25T15:45:02;13.00;98.20
3360;DHT22;1693;49.602;11.046;2023-04-25T15:47:29;13.00;98.20
3360;DHT22;1693;49.602;11.046;2023-04-25T15:49:58;12.60;99.00
3360;DHT22;1693;49.602;11.046;2023-04-25T15:52:26;12.60;98.40
3360;DHT22;1693;49.602;11.046;2023-04-25T15:54:53;11.80;98.30
3360;DHT22;1693;49.602;11.046;2023-04-25T15:57:22;11.50;99.20
3360;DHT22;1693;49.602;11.046;2023-04-25T15:59:49;11.30;99.90
3360;DHT22;1693;49.602;11.046;2023-04-25T16:02:16;11.10;99.90
3360;DHT22;1693;49.602;11.046;2023-04-25T16:04:44;11.20;99.90
3360;DHT22;1693;49.602;11.046;2023-04-25T16:07:12;11.50;99.90
3360;DHT22;1693;49.602;11.046;2023-04-25T16:09:39;11.40;99.90